sensor_id;sensor_type;location;lat;lon;timestamp;P1;durP1;ratioP1;P2;durP2;ratioP2
17959;SDS011;9105;53.552;9.980;2023-07-08T00:00:25;10.55;;;7.80;;
17959;SDS011;9105;53.552;9.980;2023-07-08T00:02:51;10.02;;;6.72;;
17959;SDS011;9105;53.552;9.980;2023-07-08T00:05:18;11.93;;;7.65;;
17959;SDS011;9105;53.552;9.980;2023-07-08T00:07:45;11.48;;;7.40;;
17959;SDS011;9105;53.552;9.980;2023-07-08T00:10:12;8.88;;;7.07;;
17959;SDS011;9105;53.552;9.980;2023-07-08T00:12:46;10.75;;;7.22;;
17959;SDS011;9105;53.552;9.980;2023-07-08T00:15:13;10.60;;;7.27;;
17959;SDS011;9105;53.552;9.980;2023-07-08T00:17:39;13.27;;;7.72;;
17959;SDS011;9105;53.552;9.980;2023-07-08T00:20:39;9.50;;;7.25;;
17959;SDS011;9105;53.552;9.980;2023-07-08T00:22:57;10.57;;;7.43;;
17959;SDS011;9105;53.552;9.980;2023-07-08T00:25:25;10.63;;;7.65;;
17959;SDS011;9105;53.552;9.980;2023-07-08T00:27:51;11.80;;;7.88;;
17959;SDS011;9105;53.552;9.980;2023-07-08T00:32:55;9.70;;;8.23;;
17959;SDS011;9105;53.552;9.980;2023-07-08T00:35:22;8.50;;;7.50;;
17959;SDS011;9105;53.552;9.980;2023-07-08T00:37:57;10.65;;;7.88;;
17959;SDS011;9105;53.552;9.980;2023-07-08T00:40:26;13.95;;;9.50;;
17959;SDS011;9105;53.552;9.980;2023-07-08T00:42:57;14.45;;;8.75;;
17959;SDS011;9105;53.552;9.980;2023-07-08T00:45:29;11.98;;;8.38;;
17959;SDS011;9105;53.552;9.980;2023-07-08T00:48:22;15.90;;;8.70;;
17959;SDS011;9105;53.552;9.980;2023-07-08T00:50:49;12.70;;;8.70;;
17959;SDS011;9105;53.552;9.980;2023-07-08T00:53:26;13.35;;;8.82;;
17959;SDS011;9105;53.552;9.980;2023-07-08T00:55:53;12.30;;;9.10;;
17959;SDS011;9105;53.552;9.980;2023-07-08T00:58:47;14.32;;;8.68;;
17959;SDS011;9105;53.552;9.980;2023-07-08T01:01:17;11.77;;;7.53;;
17959;SDS011;9105;53.552;9.980;2023-07-08T01:03:45;10.10;;;7.80;;
17959;SDS011;9105;53.552;9.980;2023-07-08T01:06:14;13.00;;;7.95;;
17959;SDS011;9105;53.552;9.980;2023-07-08T01:08:40;10.02;;;7.95;;
17959;SDS011;9105;53.552;9.980;2023-07-08T01:11:06;13.00;;;7.75;;
17959;SDS011;9105;53.552;9.980;2023-07-08T01:13:35;10.98;;;7.85;;
17959;SDS011;9105;53.552;9.980;2023-07-08T01:16:05;11.02;;;7.75;;
17959;SDS011;9105;53.552;9.980;2023-07-08T01:18:31;12.43;;;8.52;;
17959;SDS011;9105;53.552;9.980;2023-07-08T01:21:03;11.82;;;8.23;;
17959;SDS011;9105;53.552;9.980;2023-07-08T01:23:31;12.52;;;8.30;;
17959;SDS011;9105;53.552;9.980;2023-07-08T01:25:57;10.82;;;8.65;;
17959;SDS011;9105;53.552;9.980;2023-07-08T01:28:25;12.25;;;8.35;;
17959;SDS011;9105;53.552;9.980;2023-07-08T01:30:51;11.50;;;8.70;;
17959;SDS011;9105;53.552;9.980;2023-07-08T01:33:20;8.45;;;7.55;;
17959;SDS011;9105;53.552;9.980;2023-07-08T01:35:47;11.38;;;9.02;;
17959;SDS011;9105;53.552;9.980;2023-07-08T01:38:15;9.45;;;8.40;;
17959;SDS011;9105;53.552;9.980;2023-07-08T01:40:50;11.55;;;8.60;;
17959;SDS011;9105;53.552;9.980;2023-07-08T01:43:17;10.55;;;9.00;;
17959;SDS011;9105;53.552;9.980;2023-07-08T01:45:43;11.98;;;9.55;;
17959;SDS011;9105;53.552;9.980;2023-07-08T01:48:10;12.55;;;8.65;;
17959;SDS011;9105;53.552;9.980;2023-07-08T01:50:38;12.88;;;9.27;;
17959;SDS011;9105;53.552;9.980;2023-07-08T01:53:09;11.20;;;8.70;;
17959;SDS011;9105;53.552;9.980;2023-07-08T01:55:39;10.98;;;8.52;;
17959;SDS011;9105;53.552;9.980;2023-07-08T01:58:04;13.45;;;9.57;;
17959;SDS011;9105;53.552;9.980;2023-07-08T02:00:30;10.13;;;8.93;;
17959;SDS011;9105;53.552;9.980;2023-07-08T02:02:55;12.15;;;9.93;;
17959;SDS011;9105;53.552;9.980;2023-07-08T02:05:22;13.23;;;9.73;;
17959;SDS011;9105;53.552;9.980;2023-07-08T02:07:47;11.88;;;9.73;;
17959;SDS011;9105;53.552;9.980;2023-07-08T02:10:13;13.13;;;9.40;;
17959;SDS011;9105;53.552;9.980;2023-07-08T02:12:38;12.88;;;10.23;;
17959;SDS011;9105;53.552;9.980;2023-07-08T02:15:05;14.48;;;10.10;;
17959;SDS011;9105;53.552;9.980;2023-07-08T02:17:31;12.57;;;10.48;;
17959;SDS011;9105;53.552;9.980;2023-07-08T02:19:56;11.27;;;10.00;;
17959;SDS011;9105;53.552;9.980;2023-07-08T02:22:22;14.32;;;10.23;;
17959;SDS011;9105;53.552;9.980;2023-07-08T02:24:48;11.50;;;10.27;;
17959;SDS011;9105;53.552;9.980;2023-07-08T02:27:14;12.70;;;9.98;;
17959;SDS011;9105;53.552;9.980;2023-07-08T02:29:39;13.07;;;10.13;;
17959;SDS011;9105;53.552;9.980;2023-07-08T02:32:05;12.48;;;10.02;;
17959;SDS011;9105;53.552;9.980;2023-07-08T02:34:31;13.65;;;10.73;;
17959;SDS011;9105;53.552;9.980;2023-07-08T02:36:57;15.45;;;10.68;;
17959;SDS011;9105;53.552;9.980;2023-07-08T02:39:22;13.57;;;10.13;;
17959;SDS011;9105;53.552;9.980;2023-07-08T02:41:48;12.30;;;9.90;;
17959;SDS011;9105;53.552;9.980;2023-07-08T02:44:14;13.90;;;10.88;;
17959;SDS011;9105;53.552;9.980;2023-07-08T02:46:39;15.35;;;11.30;;
17959;SDS011;9105;53.552;9.980;2023-07-08T02:49:04;17.40;;;11.43;;
17959;SDS011;9105;53.552;9.980;2023-07-08T02:51:30;16.33;;;11.23;;
17959;SDS011;9105;53.552;9.980;2023-07-08T02:53:56;13.15;;;10.45;;
17959;SDS011;9105;53.552;9.980;2023-07-08T02:56:21;12.55;;;10.50;;
17959;SDS011;9105;53.552;9.980;2023-07-08T02:58:48;14.95;;;11.43;;
17959;SDS011;9105;53.552;9.980;2023-07-08T03:01:13;15.98;;;11.27;;
17959;SDS011;9105;53.552;9.980;2023-07-08T03:03:43;14.50;;;11.35;;
17959;SDS011;9105;53.552;9.980;2023-07-08T03:06:11;15.02;;;10.60;;
17959;SDS011;9105;53.552;9.980;2023-07-08T03:08:37;13.68;;;11.10;;
17959;SDS011;9105;53.552;9.980;2023-07-08T03:11:03;12.63;;;11.25;;
17959;SDS011;9105;53.552;9.980;2023-07-08T03:13:30;13.13;;;10.65;;
17959;SDS011;9105;53.552;9.980;2023-07-08T03:15:57;13.13;;;10.25;;
17959;SDS011;9105;53.552;9.980;2023-07-08T03:18:24;15.57;;;10.80;;
17959;SDS011;9105;53.552;9.980;2023-07-08T03:20:52;20.85;;;11.77;;
17959;SDS011;9105;53.552;9.980;2023-07-08T03:23:18;12.50;;;10.15;;
17959;SDS011;9105;53.552;9.980;2023-07-08T03:25:44;12.40;;;9.40;;
17959;SDS011;9105;53.552;9.980;2023-07-08T03:28:09;13.15;;;9.23;;
17959;SDS011;9105;53.552;9.980;2023-07-08T03:30:40;9.38;;;8.35;;
17959;SDS011;9105;53.552;9.980;2023-07-08T03:33:06;11.90;;;9.07;;
17959;SDS011;9105;53.552;9.980;2023-07-08T03:35:32;11.95;;;9.90;;
17959;SDS011;9105;53.552;9.980;2023-07-08T03:37:57;10.63;;;8.90;;
17959;SDS011;9105;53.552;9.980;2023-07-08T03:40:23;11.75;;;9.15;;
17959;SDS011;9105;53.552;9.980;2023-07-08T03:42:48;9.27;;;8.02;;
17959;SDS011;9105;53.552;9.980;2023-07-08T03:45:14;9.80;;;8.55;;
17959;SDS011;9105;53.552;9.980;2023-07-08T03:47:39;9.75;;;8.40;;
17959;SDS011;9105;53.552;9.980;2023-07-08T03:50:05;11.52;;;8.45;;
17959;SDS011;9105;53.552;9.980;2023-07-08T03:52:31;9.93;;;8.05;;
17959;SDS011;9105;53.552;9.980;2023-07-08T03:54:56;9.10;;;8.10;;
17959;SDS011;9105;53.552;9.980;2023-07-08T03:57:22;10.60;;;7.40;;
17959;SDS011;9105;53.552;9.980;2023-07-08T03:59:47;12.98;;;8.10;;
17959;SDS011;9105;53.552;9.980;2023-07-08T04:02:13;7.97;;;6.93;;
17959;SDS011;9105;53.552;9.980;2023-07-08T04:04:38;8.10;;;6.57;;
17959;SDS011;9105;53.552;9.980;2023-07-08T04:07:04;9.45;;;6.43;;
17959;SDS011;9105;53.552;9.980;2023-07-08T04:09:30;7.97;;;6.18;;
17959;SDS011;9105;53.552;9.980;2023-07-08T04:11:56;8.25;;;5.95;;
17959;SDS011;9105;53.552;9.980;2023-07-08T04:14:22;7.28;;;5.85;;
17959;SDS011;9105;53.552;9.980;2023-07-08T04:16:50;8.20;;;5.70;;
17959;SDS011;9105;53.552;9.980;2023-07-08T04:19:17;9.48;;;5.75;;
17959;SDS011;9105;53.552;9.980;2023-07-08T04:21:43;7.05;;;5.20;;
17959;SDS011;9105;53.552;9.980;2023-07-08T04:24:10;7.32;;;4.60;;
17959;SDS011;9105;53.552;9.980;2023-07-08T04:26:36;7.07;;;4.70;;
17959;SDS011;9105;53.552;9.980;2023-07-08T04:29:05;6.88;;;4.35;;
17959;SDS011;9105;53.552;9.980;2023-07-08T04:31:40;10.52;;;4.85;;
17959;SDS011;9105;53.552;9.980;2023-07-08T04:34:07;6.65;;;4.63;;
17959;SDS011;9105;53.552;9.980;2023-07-08T04:36:33;7.45;;;4.20;;
17959;SDS011;9105;53.552;9.980;2023-07-08T04:38:59;6.28;;;4.30;;
17959;SDS011;9105;53.552;9.980;2023-07-08T04:41:25;5.82;;;4.10;;
17959;SDS011;9105;53.552;9.980;2023-07-08T04:43:51;5.72;;;3.97;;
17959;SDS011;9105;53.552;9.980;2023-07-08T04:46:27;6.07;;;4.10;;
17959;SDS011;9105;53.552;9.980;2023-07-08T04:49:00;5.70;;;4.07;;
17959;SDS011;9105;53.552;9.980;2023-07-08T04:51:26;5.38;;;3.90;;
17959;SDS011;9105;53.552;9.980;2023-07-08T04:53:52;7.15;;;4.03;;
17959;SDS011;9105;53.552;9.980;2023-07-08T04:56:17;5.20;;;4.18;;
17959;SDS011;9105;53.552;9.980;2023-07-08T04:58:44;5.32;;;3.85;;
17959;SDS011;9105;53.552;9.980;2023-07-08T05:01:09;6.43;;;3.83;;
17959;SDS011;9105;53.552;9.980;2023-07-08T05:03:35;5.35;;;4.07;;
17959;SDS011;9105;53.552;9.980;2023-07-08T05:06:00;7.05;;;4.20;;
17959;SDS011;9105;53.552;9.980;2023-07-08T05:08:26;5.38;;;3.85;;
17959;SDS011;9105;53.552;9.980;2023-07-08T05:10:51;4.22;;;3.78;;
17959;SDS011;9105;53.552;9.980;2023-07-08T05:13:16;7.32;;;4.28;;
17959;SDS011;9105;53.552;9.980;2023-07-08T05:15:42;5.80;;;3.70;;
17959;SDS011;9105;53.552;9.980;2023-07-08T05:18:07;6.55;;;3.92;;
17959;SDS011;9105;53.552;9.980;2023-07-08T05:20:33;4.80;;;3.53;;
17959;SDS011;9105;53.552;9.980;2023-07-08T05:23:00;4.43;;;3.70;;
17959;SDS011;9105;53.552;9.980;2023-07-08T05:25:26;5.70;;;3.97;;
17959;SDS011;9105;53.552;9.980;2023-07-08T05:27:52;5.00;;;3.40;;
17959;SDS011;9105;53.552;9.980;2023-07-08T05:30:18;5.13;;;3.20;;
17959;SDS011;9105;53.552;9.980;2023-07-08T05:32:44;5.43;;;3.50;;
17959;SDS011;9105;53.552;9.980;2023-07-08T05:35:10;6.85;;;3.90;;
17959;SDS011;9105;53.552;9.980;2023-07-08T05:37:36;7.32;;;3.85;;
17959;SDS011;9105;53.552;9.980;2023-07-08T05:40:01;5.63;;;3.25;;
17959;SDS011;9105;53.552;9.980;2023-07-08T05:42:29;11.55;;;3.60;;
17959;SDS011;9105;53.552;9.980;2023-07-08T05:44:55;5.43;;;3.42;;
17959;SDS011;9105;53.552;9.980;2023-07-08T05:47:20;6.60;;;3.70;;
17959;SDS011;9105;53.552;9.980;2023-07-08T05:49:47;4.13;;;3.53;;
17959;SDS011;9105;53.552;9.980;2023-07-08T05:52:12;4.95;;;3.67;;
17959;SDS011;9105;53.552;9.980;2023-07-08T05:54:38;5.15;;;3.55;;
17959;SDS011;9105;53.552;9.980;2023-07-08T05:57:05;4.68;;;3.40;;
17959;SDS011;9105;53.552;9.980;2023-07-08T05:59:34;5.50;;;3.70;;
17959;SDS011;9105;53.552;9.980;2023-07-08T06:02:01;8.00;;;3.60;;
17959;SDS011;9105;53.552;9.980;2023-07-08T06:04:27;4.78;;;3.30;;
17959;SDS011;9105;53.552;9.980;2023-07-08T06:06:53;5.90;;;3.40;;
17959;SDS011;9105;53.552;9.980;2023-07-08T06:09:18;4.80;;;3.70;;
17959;SDS011;9105;53.552;9.980;2023-07-08T06:11:43;6.68;;;3.38;;
17959;SDS011;9105;53.552;9.980;2023-07-08T06:14:09;4.65;;;3.60;;
17959;SDS011;9105;53.552;9.980;2023-07-08T06:16:34;5.25;;;3.40;;
17959;SDS011;9105;53.552;9.980;2023-07-08T06:19:00;5.93;;;3.60;;
17959;SDS011;9105;53.552;9.980;2023-07-08T06:21:25;8.68;;;3.28;;
17959;SDS011;9105;53.552;9.980;2023-07-08T06:23:51;4.32;;;3.58;;
17959;SDS011;9105;53.552;9.980;2023-07-08T06:26:16;4.45;;;3.40;;
17959;SDS011;9105;53.552;9.980;2023-07-08T06:28:42;6.10;;;3.58;;
17959;SDS011;9105;53.552;9.980;2023-07-08T06:31:09;5.87;;;3.90;;
17959;SDS011;9105;53.552;9.980;2023-07-08T06:33:35;8.32;;;3.67;;
17959;SDS011;9105;53.552;9.980;2023-07-08T06:36:01;7.40;;;3.70;;
17959;SDS011;9105;53.552;9.980;2023-07-08T06:38:26;6.28;;;3.65;;
17959;SDS011;9105;53.552;9.980;2023-07-08T06:40:51;6.47;;;4.20;;
17959;SDS011;9105;53.552;9.980;2023-07-08T06:43:17;9.05;;;4.38;;
17959;SDS011;9105;53.552;9.980;2023-07-08T06:45:43;6.35;;;3.58;;
17959;SDS011;9105;53.552;9.980;2023-07-08T06:48:09;6.93;;;3.50;;
17959;SDS011;9105;53.552;9.980;2023-07-08T06:50:34;10.45;;;3.53;;
17959;SDS011;9105;53.552;9.980;2023-07-08T06:53:00;8.35;;;3.80;;
17959;SDS011;9105;53.552;9.980;2023-07-08T06:55:25;6.35;;;3.47;;
17959;SDS011;9105;53.552;9.980;2023-07-08T06:57:51;6.50;;;3.30;;
17959;SDS011;9105;53.552;9.980;2023-07-08T07:00:17;6.25;;;3.47;;
17959;SDS011;9105;53.552;9.980;2023-07-08T07:02:42;6.65;;;3.63;;
17959;SDS011;9105;53.552;9.980;2023-07-08T07:05:08;6.90;;;3.50;;
17959;SDS011;9105;53.552;9.980;2023-07-08T07:07:34;7.05;;;3.45;;
17959;SDS011;9105;53.552;9.980;2023-07-08T07:10:00;5.82;;;3.47;;
17959;SDS011;9105;53.552;9.980;2023-07-08T07:12:25;4.68;;;3.40;;
17959;SDS011;9105;53.552;9.980;2023-07-08T07:14:51;7.45;;;3.20;;
17959;SDS011;9105;53.552;9.980;2023-07-08T07:17:19;9.05;;;3.65;;
17959;SDS011;9105;53.552;9.980;2023-07-08T07:19:45;5.50;;;3.50;;
17959;SDS011;9105;53.552;9.980;2023-07-08T07:22:10;9.55;;;3.40;;
17959;SDS011;9105;53.552;9.980;2023-07-08T07:24:36;9.32;;;3.55;;
17959;SDS011;9105;53.552;9.980;2023-07-08T07:27:01;7.18;;;3.15;;
17959;SDS011;9105;53.552;9.980;2023-07-08T07:29:27;3.60;;;3.10;;
17959;SDS011;9105;53.552;9.980;2023-07-08T07:31:52;7.75;;;3.40;;
17959;SDS011;9105;53.552;9.980;2023-07-08T07:34:18;5.03;;;3.15;;
17959;SDS011;9105;53.552;9.980;2023-07-08T07:36:43;4.85;;;2.90;;
17959;SDS011;9105;53.552;9.980;2023-07-08T07:39:09;6.13;;;3.28;;
17959;SDS011;9105;53.552;9.980;2023-07-08T07:41:34;4.68;;;3.40;;
17959;SDS011;9105;53.552;9.980;2023-07-08T07:43:59;4.45;;;3.10;;
17959;SDS011;9105;53.552;9.980;2023-07-08T07:46:25;4.18;;;3.55;;
17959;SDS011;9105;53.552;9.980;2023-07-08T07:48:50;5.70;;;3.22;;
17959;SDS011;9105;53.552;9.980;2023-07-08T07:51:16;5.57;;;3.20;;
17959;SDS011;9105;53.552;9.980;2023-07-08T07:53:41;5.70;;;3.05;;
17959;SDS011;9105;53.552;9.980;2023-07-08T07:56:07;5.85;;;3.10;;
17959;SDS011;9105;53.552;9.980;2023-07-08T07:58:32;3.33;;;3.00;;
17959;SDS011;9105;53.552;9.980;2023-07-08T08:00:58;6.45;;;3.63;;
17959;SDS011;9105;53.552;9.980;2023-07-08T08:03:24;4.05;;;3.17;;
17959;SDS011;9105;53.552;9.980;2023-07-08T08:05:49;4.53;;;3.17;;
17959;SDS011;9105;53.552;9.980;2023-07-08T08:08:15;3.40;;;3.00;;
17959;SDS011;9105;53.552;9.980;2023-07-08T08:10:41;5.10;;;3.30;;
17959;SDS011;9105;53.552;9.980;2023-07-08T08:13:07;3.33;;;3.03;;
17959;SDS011;9105;53.552;9.980;2023-07-08T08:15:33;4.60;;;3.58;;
17959;SDS011;9105;53.552;9.980;2023-07-08T08:17:59;8.77;;;2.90;;
17959;SDS011;9105;53.552;9.980;2023-07-08T08:20:24;9.60;;;3.65;;
17959;SDS011;9105;53.552;9.980;2023-07-08T08:22:50;6.45;;;3.20;;
17959;SDS011;9105;53.552;9.980;2023-07-08T08:25:17;5.55;;;3.20;;
17959;SDS011;9105;53.552;9.980;2023-07-08T08:27:43;4.70;;;3.35;;
17959;SDS011;9105;53.552;9.980;2023-07-08T08:30:09;4.63;;;2.97;;
17959;SDS011;9105;53.552;9.980;2023-07-08T08:32:35;5.05;;;3.47;;
17959;SDS011;9105;53.552;9.980;2023-07-08T08:35:00;5.35;;;3.03;;
17959;SDS011;9105;53.552;9.980;2023-07-08T08:37:26;8.00;;;3.28;;
17959;SDS011;9105;53.552;9.980;2023-07-08T08:39:51;4.93;;;3.20;;
17959;SDS011;9105;53.552;9.980;2023-07-08T08:42:20;4.32;;;3.00;;
17959;SDS011;9105;53.552;9.980;2023-07-08T08:44:50;7.30;;;3.22;;
17959;SDS011;9105;53.552;9.980;2023-07-08T08:47:25;3.83;;;2.90;;
17959;SDS011;9105;53.552;9.980;2023-07-08T08:50:00;6.00;;;3.30;;
17959;SDS011;9105;53.552;9.980;2023-07-08T08:52:30;4.63;;;2.90;;
17959;SDS011;9105;53.552;9.980;2023-07-08T08:54:55;3.97;;;3.03;;
17959;SDS011;9105;53.552;9.980;2023-07-08T09:00:03;3.88;;;3.00;;
17959;SDS011;9105;53.552;9.980;2023-07-08T09:02:34;5.78;;;2.90;;
17959;SDS011;9105;53.552;9.980;2023-07-08T09:05:06;5.15;;;3.05;;
17959;SDS011;9105;53.552;9.980;2023-07-08T09:07:37;7.25;;;3.10;;
17959;SDS011;9105;53.552;9.980;2023-07-08T09:10:09;4.45;;;3.03;;
17959;SDS011;9105;53.552;9.980;2023-07-08T09:12:41;5.28;;;3.20;;
17959;SDS011;9105;53.552;9.980;2023-07-08T09:15:11;5.50;;;3.10;;
17959;SDS011;9105;53.552;9.980;2023-07-08T09:17:38;4.80;;;2.90;;
17959;SDS011;9105;53.552;9.980;2023-07-08T09:20:12;3.70;;;3.00;;
17959;SDS011;9105;53.552;9.980;2023-07-08T09:22:48;5.22;;;3.10;;
17959;SDS011;9105;53.552;9.980;2023-07-08T09:27:54;4.20;;;3.00;;
17959;SDS011;9105;53.552;9.980;2023-07-08T09:30:22;6.57;;;3.88;;
17959;SDS011;9105;53.552;9.980;2023-07-08T09:32:49;5.40;;;2.90;;
17959;SDS011;9105;53.552;9.980;2023-07-08T09:37:51;4.40;;;2.90;;
17959;SDS011;9105;53.552;9.980;2023-07-08T09:42:54;11.88;;;3.63;;
17959;SDS011;9105;53.552;9.980;2023-07-08T09:45:25;3.80;;;3.08;;
17959;SDS011;9105;53.552;9.980;2023-07-08T09:47:54;7.82;;;3.08;;
17959;SDS011;9105;53.552;9.980;2023-07-08T09:50:22;6.25;;;3.47;;
17959;SDS011;9105;53.552;9.980;2023-07-08T09:52:50;5.60;;;2.97;;
17959;SDS011;9105;53.552;9.980;2023-07-08T09:55:17;4.37;;;3.50;;
17959;SDS011;9105;53.552;9.980;2023-07-08T09:57:43;4.85;;;3.50;;
17959;SDS011;9105;53.552;9.980;2023-07-08T10:00:13;4.40;;;3.15;;
17959;SDS011;9105;53.552;9.980;2023-07-08T10:02:45;8.77;;;3.17;;
17959;SDS011;9105;53.552;9.980;2023-07-08T10:05:26;7.22;;;3.17;;
17959;SDS011;9105;53.552;9.980;2023-07-08T10:07:57;6.03;;;3.50;;
17959;SDS011;9105;53.552;9.980;2023-07-08T10:10:58;4.18;;;3.40;;
17959;SDS011;9105;53.552;9.980;2023-07-08T10:13:37;4.72;;;3.28;;
17959;SDS011;9105;53.552;9.980;2023-07-08T10:18:38;6.30;;;3.40;;
17959;SDS011;9105;53.552;9.980;2023-07-08T10:27:02;4.43;;;3.70;;
17959;SDS011;9105;53.552;9.980;2023-07-08T10:35:00;3.70;;;3.13;;
17959;SDS011;9105;53.552;9.980;2023-07-08T10:37:41;6.57;;;3.67;;
17959;SDS011;9105;53.552;9.980;2023-07-08T10:45:59;8.13;;;3.47;;
17959;SDS011;9105;53.552;9.980;2023-07-08T10:56:29;4.63;;;3.40;;
17959;SDS011;9105;53.552;9.980;2023-07-08T11:07:36;7.03;;;3.55;;
17959;SDS011;9105;53.552;9.980;2023-07-08T11:10:20;8.77;;;3.70;;
17959;SDS011;9105;53.552;9.980;2023-07-08T11:12:54;6.22;;;3.30;;
17959;SDS011;9105;53.552;9.980;2023-07-08T11:15:28;6.80;;;3.20;;
17959;SDS011;9105;53.552;9.980;2023-07-08T11:20:37;8.25;;;3.92;;
17959;SDS011;9105;53.552;9.980;2023-07-08T11:26:06;5.25;;;3.42;;
17959;SDS011;9105;53.552;9.980;2023-07-08T11:28:47;5.47;;;3.63;;
17959;SDS011;9105;53.552;9.980;2023-07-08T11:31:15;8.15;;;3.50;;
17959;SDS011;9105;53.552;9.980;2023-07-08T11:33:41;4.03;;;3.25;;
17959;SDS011;9105;53.552;9.980;2023-07-08T11:36:07;6.00;;;3.15;;
17959;SDS011;9105;53.552;9.980;2023-07-08T11:38:33;5.05;;;3.20;;
17959;SDS011;9105;53.552;9.980;2023-07-08T11:41:09;5.85;;;3.13;;
17959;SDS011;9105;53.552;9.980;2023-07-08T11:43:43;4.40;;;3.30;;
17959;SDS011;9105;53.552;9.980;2023-07-08T11:46:14;4.03;;;3.20;;
17959;SDS011;9105;53.552;9.980;2023-07-08T11:48:45;3.90;;;3.50;;
17959;SDS011;9105;53.552;9.980;2023-07-08T11:51:19;4.13;;;3.28;;
17959;SDS011;9105;53.552;9.980;2023-07-08T11:53:50;4.35;;;3.45;;
17959;SDS011;9105;53.552;9.980;2023-07-08T11:56:50;4.00;;;3.45;;
17959;SDS011;9105;53.552;9.980;2023-07-08T11:59:28;4.30;;;3.38;;
17959;SDS011;9105;53.552;9.980;2023-07-08T12:02:02;4.18;;;3.20;;
17959;SDS011;9105;53.552;9.980;2023-07-08T12:04:51;8.52;;;3.63;;
17959;SDS011;9105;53.552;9.980;2023-07-08T12:07:31;4.40;;;3.42;;
17959;SDS011;9105;53.552;9.980;2023-07-08T12:10:06;4.30;;;3.30;;
17959;SDS011;9105;53.552;9.980;2023-07-08T12:12:37;6.85;;;4.00;;
17959;SDS011;9105;53.552;9.980;2023-07-08T12:15:22;5.18;;;3.55;;
17959;SDS011;9105;53.552;9.980;2023-07-08T12:17:54;5.68;;;3.92;;
17959;SDS011;9105;53.552;9.980;2023-07-08T12:20:23;4.95;;;3.63;;
17959;SDS011;9105;53.552;9.980;2023-07-08T12:22:51;8.48;;;3.55;;
17959;SDS011;9105;53.552;9.980;2023-07-08T12:25:17;5.40;;;3.60;;
17959;SDS011;9105;53.552;9.980;2023-07-08T12:27:45;9.75;;;4.22;;
17959;SDS011;9105;53.552;9.980;2023-07-08T12:30:11;5.18;;;3.60;;
17959;SDS011;9105;53.552;9.980;2023-07-08T12:32:37;6.80;;;3.42;;
17959;SDS011;9105;53.552;9.980;2023-07-08T12:35:03;5.22;;;3.65;;
17959;SDS011;9105;53.552;9.980;2023-07-08T12:37:31;4.78;;;3.60;;
17959;SDS011;9105;53.552;9.980;2023-07-08T12:39:57;6.45;;;3.80;;
17959;SDS011;9105;53.552;9.980;2023-07-08T12:42:29;4.93;;;3.60;;
17959;SDS011;9105;53.552;9.980;2023-07-08T12:44:55;5.60;;;3.60;;
17959;SDS011;9105;53.552;9.980;2023-07-08T12:47:21;5.35;;;3.58;;
17959;SDS011;9105;53.552;9.980;2023-07-08T12:49:47;5.95;;;3.53;;
17959;SDS011;9105;53.552;9.980;2023-07-08T12:52:19;4.65;;;3.78;;
17959;SDS011;9105;53.552;9.980;2023-07-08T12:54:48;7.15;;;3.47;;
17959;SDS011;9105;53.552;9.980;2023-07-08T12:57:14;4.50;;;3.63;;
17959;SDS011;9105;53.552;9.980;2023-07-08T12:59:41;4.88;;;3.38;;
17959;SDS011;9105;53.552;9.980;2023-07-08T13:02:11;5.05;;;3.63;;
17959;SDS011;9105;53.552;9.980;2023-07-08T13:04:40;5.43;;;3.97;;
17959;SDS011;9105;53.552;9.980;2023-07-08T13:07:08;5.88;;;3.58;;
17959;SDS011;9105;53.552;9.980;2023-07-08T13:09:43;4.60;;;3.50;;
17959;SDS011;9105;53.552;9.980;2023-07-08T13:12:17;7.22;;;3.95;;
17959;SDS011;9105;53.552;9.980;2023-07-08T13:14:47;4.50;;;3.47;;
17959;SDS011;9105;53.552;9.980;2023-07-08T13:17:15;5.50;;;3.65;;
17959;SDS011;9105;53.552;9.980;2023-07-08T13:19:42;5.35;;;3.58;;
17959;SDS011;9105;53.552;9.980;2023-07-08T13:22:10;4.25;;;3.50;;
17959;SDS011;9105;53.552;9.980;2023-07-08T13:24:37;7.75;;;3.55;;
17959;SDS011;9105;53.552;9.980;2023-07-08T13:27:04;3.45;;;3.15;;
17959;SDS011;9105;53.552;9.980;2023-07-08T13:29:34;4.22;;;3.67;;
17959;SDS011;9105;53.552;9.980;2023-07-08T13:32:03;5.38;;;3.60;;
17959;SDS011;9105;53.552;9.980;2023-07-08T13:34:30;4.72;;;3.65;;
17959;SDS011;9105;53.552;9.980;2023-07-08T13:36:57;5.13;;;3.42;;
17959;SDS011;9105;53.552;9.980;2023-07-08T13:39:26;4.60;;;3.40;;
17959;SDS011;9105;53.552;9.980;2023-07-08T13:41:54;6.18;;;4.00;;
17959;SDS011;9105;53.552;9.980;2023-07-08T13:44:19;4.50;;;3.97;;
17959;SDS011;9105;53.552;9.980;2023-07-08T13:49:15;5.95;;;3.60;;
17959;SDS011;9105;53.552;9.980;2023-07-08T13:52:04;7.78;;;3.55;;
17959;SDS011;9105;53.552;9.980;2023-07-08T13:54:33;5.95;;;3.40;;
17959;SDS011;9105;53.552;9.980;2023-07-08T13:57:10;4.55;;;3.90;;
17959;SDS011;9105;53.552;9.980;2023-07-08T14:02:06;6.82;;;3.65;;
17959;SDS011;9105;53.552;9.980;2023-07-08T14:04:40;9.15;;;3.78;;
17959;SDS011;9105;53.552;9.980;2023-07-08T14:07:09;5.30;;;3.80;;
17959;SDS011;9105;53.552;9.980;2023-07-08T14:09:38;6.15;;;3.95;;
17959;SDS011;9105;53.552;9.980;2023-07-08T14:12:04;7.45;;;4.00;;
17959;SDS011;9105;53.552;9.980;2023-07-08T14:14:29;5.50;;;4.00;;
17959;SDS011;9105;53.552;9.980;2023-07-08T14:16:54;4.72;;;3.70;;
17959;SDS011;9105;53.552;9.980;2023-07-08T14:19:24;8.07;;;3.83;;
17959;SDS011;9105;53.552;9.980;2023-07-08T14:21:51;4.57;;;3.90;;
17959;SDS011;9105;53.552;9.980;2023-07-08T14:24:19;5.05;;;3.90;;
17959;SDS011;9105;53.552;9.980;2023-07-08T14:26:44;4.50;;;3.97;;
17959;SDS011;9105;53.552;9.980;2023-07-08T14:29:11;4.55;;;3.97;;
17959;SDS011;9105;53.552;9.980;2023-07-08T14:31:38;6.57;;;4.00;;
17959;SDS011;9105;53.552;9.980;2023-07-08T14:34:05;4.13;;;3.72;;
17959;SDS011;9105;53.552;9.980;2023-07-08T14:36:32;5.93;;;4.20;;
17959;SDS011;9105;53.552;9.980;2023-07-08T14:38:57;8.95;;;4.15;;
17959;SDS011;9105;53.552;9.980;2023-07-08T14:41:23;8.63;;;4.50;;
17959;SDS011;9105;53.552;9.980;2023-07-08T14:43:49;6.32;;;3.80;;
17959;SDS011;9105;53.552;9.980;2023-07-08T14:46:14;6.65;;;4.03;;
17959;SDS011;9105;53.552;9.980;2023-07-08T14:48:41;5.95;;;4.78;;
17959;SDS011;9105;53.552;9.980;2023-07-08T14:51:07;4.93;;;3.92;;
17959;SDS011;9105;53.552;9.980;2023-07-08T14:53:33;4.40;;;4.00;;
17959;SDS011;9105;53.552;9.980;2023-07-08T14:55:58;5.35;;;3.90;;
17959;SDS011;9105;53.552;9.980;2023-07-08T14:58:29;7.32;;;5.10;;
17959;SDS011;9105;53.552;9.980;2023-07-08T15:00:58;6.03;;;4.30;;
17959;SDS011;9105;53.552;9.980;2023-07-08T15:03:25;6.93;;;4.22;;
17959;SDS011;9105;53.552;9.980;2023-07-08T15:05:51;4.93;;;3.97;;
17959;SDS011;9105;53.552;9.980;2023-07-08T15:08:17;4.93;;;4.40;;
17959;SDS011;9105;53.552;9.980;2023-07-08T15:10:49;4.82;;;4.25;;
17959;SDS011;9105;53.552;9.980;2023-07-08T15:13:17;5.53;;;4.00;;
17959;SDS011;9105;53.552;9.980;2023-07-08T15:15:43;5.93;;;4.10;;
17959;SDS011;9105;53.552;9.980;2023-07-08T15:18:14;6.57;;;4.25;;
17959;SDS011;9105;53.552;9.980;2023-07-08T15:20:40;7.32;;;4.28;;
17959;SDS011;9105;53.552;9.980;2023-07-08T15:23:06;6.15;;;4.40;;
17959;SDS011;9105;53.552;9.980;2023-07-08T15:25:33;4.43;;;3.97;;
17959;SDS011;9105;53.552;9.980;2023-07-08T15:27:59;5.15;;;4.10;;
17959;SDS011;9105;53.552;9.980;2023-07-08T15:30:26;4.55;;;4.15;;
17959;SDS011;9105;53.552;9.980;2023-07-08T15:32:52;6.25;;;4.50;;
17959;SDS011;9105;53.552;9.980;2023-07-08T15:35:20;5.82;;;4.47;;
17959;SDS011;9105;53.552;9.980;2023-07-08T15:37:57;8.23;;;4.50;;
17959;SDS011;9105;53.552;9.980;2023-07-08T15:40:24;6.03;;;4.03;;
17959;SDS011;9105;53.552;9.980;2023-07-08T15:42:51;7.40;;;4.47;;
17959;SDS011;9105;53.552;9.980;2023-07-08T15:47:51;8.45;;;4.30;;
17959;SDS011;9105;53.552;9.980;2023-07-08T15:50:18;4.72;;;4.10;;
17959;SDS011;9105;53.552;9.980;2023-07-08T15:52:45;5.50;;;4.20;;
17959;SDS011;9105;53.552;9.980;2023-07-08T15:55:11;6.20;;;3.67;;
17959;SDS011;9105;53.552;9.980;2023-07-08T15:57:49;4.10;;;3.70;;
17959;SDS011;9105;53.552;9.980;2023-07-08T16:00:19;7.00;;;3.78;;
17959;SDS011;9105;53.552;9.980;2023-07-08T16:02:51;6.15;;;4.10;;
17959;SDS011;9105;53.552;9.980;2023-07-08T16:05:18;5.88;;;4.00;;